Time;durP1;ratioP1;P1;durP2;ratioP2;P2;SDS_P1;SDS_P2;PMS_P1;PMS_P2;Temp;Humidity;BMP_temperature;BMP_pressure;BME280_temperature;BME280_humidity;BME280_pressure;Samples;Min_cycle;Max_cycle;Signal;HPM_P1;HPM_P2
2021/07/26 00:01:31;;;;;;;;;;;;;;;19.17;87.20;100854.13;5053621;28;19921;-58
2021/07/26 00:03:58;;;;;;;;;;;;;;;19.07;87.68;100849.75;5052478;28;20210;-58
2021/07/26 00:06:25;;;;;;;;;;;;;;;19.19;86.92;100857.47;5050728;28;19921;-58
2021/07/26 00:08:52;;;;;;;;;;;;;;;19.09;86.93;100845.09;5052280;28;19971;-50
2021/07/26 00:11:18;;;;;;;;;;;;;;;19.08;87.16;100843.41;5052403;28;19947;-47
2021/07/26 00:13:45;;;;;;;;;;;;;;;19.03;87.40;100847.53;5053195;28;19966;-58
2021/07/26 00:16:11;;;;;;;;;;;;;;;18.98;87.51;100840.03;5049798;28;20698;-48
2021/07/26 00:18:38;;;;;;;;;;;;;;;19.02;87.12;100838.72;5049752;28;19982;-50
2021/07/26 00:21:05;;;;;;;;;;;;;;;19.00;87.26;100839.84;5051843;28;19927;-48
2021/07/26 00:23:31;;;;;;;;;;;;;;;18.98;86.91;100839.16;5051822;28;19978;-51
2021/07/26 00:25:58;;;;;;;;;;;;;;;18.94;87.16;100835.13;5053272;28;19935;-49
2021/07/26 00:28:25;;;;;;;;;;;;;;;18.94;87.10;100833.31;5053224;28;19920;-58
2021/07/26 00:30:51;;;;;;;;;;;;;;;18.95;87.15;100831.47;5049998;28;20562;-58
2021/07/26 00:33:56;;;;;;;;;;;;;;;18.90;87.15;100819.47;5049747;28;19974;-48
2021/07/26 00:36:23;;;;;;;;;;;;;;;18.91;86.99;100822.97;5052451;28;20329;-58
2021/07/26 00:38:50;;;;;;;;;;;;;;;18.82;87.25;100821.22;5052861;28;19952;-58
2021/07/26 00:41:17;;;;;;;;;;;;;;;18.81;87.40;100824.84;5051626;28;20437;-58
2021/07/26 00:43:44;;;;;;;;;;;;;;;18.75;87.54;100824.47;5052857;28;19921;-58
2021/07/26 00:46:11;;;;;;;;;;;;;;;18.68;87.80;100825.22;5052580;28;19928;-58
2021/07/26 00:48:37;;;;;;;;;;;;;;;18.65;87.89;100823.75;5052916;28;19947;-58
2021/07/26 00:51:05;;;;;;;;;;;;;;;18.61;87.95;100824.19;5051771;28;19924;-58
2021/07/26 00:53:32;;;;;;;;;;;;;;;18.59;88.13;100822.50;5049678;28;19948;-58
2021/07/26 00:55:58;;;;;;;;;;;;;;;18.56;88.09;100817.50;5049680;28;20363;-58
2021/07/26 00:58:25;;;;;;;;;;;;;;;18.53;88.15;100819.66;5050136;28;19924;-50
2021/07/26 01:00:52;;;;;;;;;;;;;;;18.51;87.91;100818.94;5049651;28;19928;-50
2021/07/26 01:03:19;;;;;;;;;;;;;;;18.57;87.80;100823.69;5050432;28;19920;-50
2021/07/26 01:05:45;;;;;;;;;;;;;;;18.52;87.75;100820.63;5052408;28;19921;-52
2021/07/26 01:08:12;;;;;;;;;;;;;;;18.50;87.53;100823.44;5048964;28;19986;-58
2021/07/26 01:10:38;;;;;;;;;;;;;;;18.46;87.56;100826.53;5050259;28;19924;-58
2021/07/26 01:13:05;;;;;;;;;;;;;;;18.45;87.82;100824.88;5035091;28;19920;-58
2021/07/26 01:15:32;;;;;;;;;;;;;;;18.48;87.58;100825.41;5052862;28;20375;-58
2021/07/26 01:18:01;;;;;;;;;;;;;;;18.40;87.85;100826.16;5052500;28;20276;-50
2021/07/26 01:20:27;;;;;;;;;;;;;;;18.30;87.60;100820.09;5052332;28;19982;-58
2021/07/26 01:22:54;;;;;;;;;;;;;;;18.32;87.77;100822.59;5049745;28;19921;-58
2021/07/26 01:25:21;;;;;;;;;;;;;;;18.24;87.76;100821.53;5050507;28;19924;-58
2021/07/26 01:27:47;;;;;;;;;;;;;;;18.19;87.86;100830.97;5051118;28;19924;-50
2021/07/26 01:30:14;;;;;;;;;;;;;;;18.06;88.75;100825.97;5051162;28;19921;-58
2021/07/26 01:32:40;;;;;;;;;;;;;;;18.01;89.04;100838.88;5052394;28;19974;-50
2021/07/26 01:35:07;;;;;;;;;;;;;;;18.03;88.69;100837.75;5052115;28;20387;-50
2021/07/26 01:37:34;;;;;;;;;;;;;;;17.99;88.79;100836.38;5052191;28;19922;-48
2021/07/26 01:40:00;;;;;;;;;;;;;;;18.02;88.75;100838.72;5051268;28;19946;-57
2021/07/26 01:42:27;;;;;;;;;;;;;;;17.99;88.84;100839.03;5051159;28;20390;-58
2021/07/26 01:44:57;;;;;;;;;;;;;;;17.93;88.91;100837.00;5049049;28;19921;-49
2021/07/26 01:47:23;;;;;;;;;;;;;;;17.98;88.55;100834.69;5047314;28;19924;-47
2021/07/26 01:49:50;;;;;;;;;;;;;;;18.01;88.76;100834.41;5050340;28;19975;-58
2021/07/26 01:52:17;;;;;;;;;;;;;;;17.91;89.08;100833.59;5051806;28;20376;-49
2021/07/26 01:54:43;;;;;;;;;;;;;;;17.88;89.13;100844.53;5050829;28;19936;-49
2021/07/26 01:57:10;;;;;;;;;;;;;;;17.83;89.15;100846.78;5048974;28;19921;-58
2021/07/26 01:59:37;;;;;;;;;;;;;;;17.81;89.47;100838.13;5049740;28;19971;-58
2021/07/26 02:02:03;;;;;;;;;;;;;;;17.83;89.54;100838.81;5050878;28;19921;-58
2021/07/26 02:04:30;;;;;;;;;;;;;;;17.88;89.30;100841.88;5049068;28;20183;-58
2021/07/26 02:06:57;;;;;;;;;;;;;;;17.92;88.92;100842.47;5050106;28;20348;-58
2021/07/26 02:09:23;;;;;;;;;;;;;;;17.85;88.82;100839.53;5054542;28;19920;-58
2021/07/26 02:11:50;;;;;;;;;;;;;;;17.81;89.37;100838.13;5055873;28;20269;-58
2021/07/26 02:14:17;;;;;;;;;;;;;;;17.83;89.28;100849.44;5055227;28;19935;-58
2021/07/26 02:16:49;;;;;;;;;;;;;;;17.77;89.65;100844.72;5055157;28;19990;-58
2021/07/26 02:19:16;;;;;;;;;;;;;;;17.71;89.94;100844.34;5055316;28;20403;-58
2021/07/26 02:21:42;;;;;;;;;;;;;;;17.65;90.11;100847.56;5055627;28;19928;-51
2021/07/26 02:24:09;;;;;;;;;;;;;;;17.66;90.38;100851.06;5055292;28;19920;-49
2021/07/26 02:26:36;;;;;;;;;;;;;;;17.73;89.62;100857.47;5054150;28;19921;-50
2021/07/26 02:29:02;;;;;;;;;;;;;;;17.71;89.57;100857.63;5052844;28;20357;-46
2021/07/26 02:31:29;;;;;;;;;;;;;;;17.73;89.34;100862.78;5052387;28;19928;-49
2021/07/26 02:33:56;;;;;;;;;;;;;;;17.53;90.45;100862.03;5037544;28;20421;-47
2021/07/26 02:36:22;;;;;;;;;;;;;;;17.45;91.09;100856.59;5054090;28;19983;-58
2021/07/26 02:38:49;;;;;;;;;;;;;;;17.50;90.97;100849.84;5053832;28;19966;-58
2021/07/26 02:41:15;;;;;;;;;;;;;;;17.50;90.88;100857.00;5054901;28;20284;-58
2021/07/26 02:43:42;;;;;;;;;;;;;;;17.51;90.43;100856.03;5053767;28;20334;-58
2021/07/26 02:46:09;;;;;;;;;;;;;;;17.52;90.25;100857.69;5037225;28;19924;-58
2021/07/26 02:48:36;;;;;;;;;;;;;;;17.49;90.55;100857.97;5054804;28;20334;-58
2021/07/26 02:51:03;;;;;;;;;;;;;;;17.54;90.15;100853.06;5052349;28;19935;-47
2021/07/26 02:53:29;;;;;;;;;;;;;;;17.50;90.26;100857.00;5050519;28;20370;-47
2021/07/26 02:55:56;;;;;;;;;;;;;;;17.51;90.54;100854.19;5053647;28;20441;-51
2021/07/26 02:58:23;;;;;;;;;;;;;;;17.48;90.31;100854.50;5054369;28;19925;-48
2021/07/26 03:00:50;;;;;;;;;;;;;;;17.49;90.34;100850.00;5053792;28;19920;-49
2021/07/26 03:03:16;;;;;;;;;;;;;;;17.56;89.91;100851.94;5048794;28;19924;-46
2021/07/26 03:05:43;;;;;;;;;;;;;;;17.53;89.92;100857.56;5053061;28;19921;-45
2021/07/26 03:08:11;;;;;;;;;;;;;;;17.47;89.81;100852.81;5054404;28;19921;-45
2021/07/26 03:10:37;;;;;;;;;;;;;;;17.49;89.72;100860.63;5053293;28;19927;-50
2021/07/26 03:13:04;;;;;;;;;;;;;;;17.42;89.78;100865.69;5054327;28;20851;-50
2021/07/26 03:15:30;;;;;;;;;;;;;;;17.44;89.74;100863.75;5053693;28;19970;-49
2021/07/26 03:17:57;;;;;;;;;;;;;;;17.46;89.59;100867.06;5048899;28;19935;-50
2021/07/26 03:20:24;;;;;;;;;;;;;;;17.42;89.61;100864.88;5052387;28;20434;-47
2021/07/26 03:22:56;;;;;;;;;;;;;;;17.43;89.91;100875.34;5052993;28;19966;-48
2021/07/26 03:25:23;;;;;;;;;;;;;;;17.49;89.31;100869.47;5052931;28;19974;-47
2021/07/26 03:27:50;;;;;;;;;;;;;;;17.37;89.81;100871.44;5053861;28;19921;-51
2021/07/26 03:30:17;;;;;;;;;;;;;;;17.37;89.59;100870.63;5054140;28;20431;-49
2021/07/26 03:32:44;;;;;;;;;;;;;;;17.28;90.25;100874.97;5054188;28;20417;-51
2021/07/26 03:35:11;;;;;;;;;;;;;;;17.28;90.15;100877.63;5051868;28;19927;-48
2021/07/26 03:37:38;;;;;;;;;;;;;;;17.28;90.15;100879.44;5050675;28;19920;-49
2021/07/26 03:40:05;;;;;;;;;;;;;;;17.29;90.15;100881.97;5052071;28;19944;-45
2021/07/26 03:42:35;;;;;;;;;;;;;;;17.21;90.42;100874.69;5052210;28;19921;-46
2021/07/26 03:45:06;;;;;;;;;;;;;;;17.20;90.37;100880.97;5052646;28;20150;-45
2021/07/26 03:47:33;;;;;;;;;;;;;;;17.26;90.16;100882.25;5053673;28;20403;-46
2021/07/26 03:49:59;;;;;;;;;;;;;;;17.17;90.46;100883.94;5052314;28;20388;-50
2021/07/26 03:52:26;;;;;;;;;;;;;;;17.15;90.57;100885.91;5053059;28;19970;-51
2021/07/26 03:54:56;;;;;;;;;;;;;;;17.15;90.72;100885.06;5053428;28;19960;-49
2021/07/26 03:57:23;;;;;;;;;;;;;;;17.10;91.15;100889.94;5052301;28;19979;-50
2021/07/26 03:59:49;;;;;;;;;;;;;;;17.09;91.05;100882.97;5053257;28;19967;-47
2021/07/26 04:02:16;;;;;;;;;;;;;;;17.07;91.50;100885.78;5049039;28;20401;-47
2021/07/26 04:04:43;;;;;;;;;;;;;;;17.04;91.28;100894.88;5049362;28;20329;-48
2021/07/26 04:07:17;;;;;;;;;;;;;;;17.12;91.01;100885.34;5051579;28;19971;-49
2021/07/26 04:09:47;;;;;;;;;;;;;;;17.04;91.21;100886.03;5052522;28;19928;-49
2021/07/26 04:12:20;;;;;;;;;;;;;;;17.00;91.70;100889.97;5050537;28;19924;-49
2021/07/26 04:14:47;;;;;;;;;;;;;;;17.03;91.64;100893.19;5052398;28;20015;-58
2021/07/26 04:17:14;;;;;;;;;;;;;;;17.00;91.77;100892.63;5053207;28;19921;-58
2021/07/26 04:19:41;;;;;;;;;;;;;;;16.96;92.24;100888.56;5052254;28;19982;-58
2021/07/26 04:22:07;;;;;;;;;;;;;;;16.89;92.32;100890.94;5053276;28;19932;-58
2021/07/26 04:24:34;;;;;;;;;;;;;;;16.90;92.59;100893.44;5053228;28;19966;-58
2021/07/26 04:27:00;;;;;;;;;;;;;;;16.88;92.79;100891.91;5053275;28;20383;-58
2021/07/26 04:29:27;;;;;;;;;;;;;;;16.88;92.83;100890.06;5052951;28;20383;-57
2021/07/26 04:31:54;;;;;;;;;;;;;;;16.83;93.19;100894.97;5052265;28;19951;-58
2021/07/26 04:34:20;;;;;;;;;;;;;;;16.85;93.00;100894.81;5052933;28;20458;-57
2021/07/26 04:36:47;;;;;;;;;;;;;;;16.92;93.17;100898.66;5053180;28;19967;-57
2021/07/26 04:39:13;;;;;;;;;;;;;;;16.89;93.23;100901.56;5051889;28;19940;-58
2021/07/26 04:41:40;;;;;;;;;;;;;;;16.90;93.33;100901.41;5050686;28;19944;-58
2021/07/26 04:44:07;;;;;;;;;;;;;;;16.95;92.93;100903.66;5051951;28;20371;-57
2021/07/26 04:46:33;;;;;;;;;;;;;;;16.88;93.48;100908.66;5051513;28;19920;-57
2021/07/26 04:49:00;;;;;;;;;;;;;;;16.92;93.75;100903.97;5051193;28;19927;-51
2021/07/26 04:51:27;;;;;;;;;;;;;;;16.93;93.18;100902.13;5050078;28;19921;-47
2021/07/26 04:53:53;;;;;;;;;;;;;;;16.94;93.17;100901.16;5050105;28;19925;-44
2021/07/26 04:56:20;;;;;;;;;;;;;;;17.00;92.89;100908.56;5034906;28;19967;-49
2021/07/26 04:58:46;;;;;;;;;;;;;;;17.03;92.97;100903.81;5052626;28;19921;-49
2021/07/26 05:01:13;;;;;;;;;;;;;;;17.09;92.43;100906.88;5049539;28;19932;-50
2021/07/26 05:03:40;;;;;;;;;;;;;;;17.03;92.73;100903.81;5048790;28;20012;-47
2021/07/26 05:06:07;;;;;;;;;;;;;;;17.02;93.45;100912.75;5051332;28;20384;-51
2021/07/26 05:08:33;;;;;;;;;;;;;;;16.95;93.88;100911.66;5051111;28;19966;-45
2021/07/26 05:11:00;;;;;;;;;;;;;;;16.99;93.49;100909.56;5052135;28;19927;-45
2021/07/26 05:13:27;;;;;;;;;;;;;;;17.02;93.58;100911.91;5051109;28;19920;-45
2021/07/26 05:15:54;;;;;;;;;;;;;;;17.00;93.66;100909.41;5049365;28;20447;-50
2021/07/26 05:18:20;;;;;;;;;;;;;;;16.97;94.10;100912.31;5047937;28;19948;-44
2021/07/26 05:20:47;;;;;;;;;;;;;;;17.03;93.91;100910.94;5052357;28;19928;-57
2021/07/26 05:23:16;;;;;;;;;;;;;;;17.02;94.06;100903.94;5051276;28;20003;-56
2021/07/26 05:25:43;;;;;;;;;;;;;;;17.05;94.23;100903.66;5052136;28;19925;-57
2021/07/26 05:28:10;;;;;;;;;;;;;;;17.13;93.83;100905.63;5051252;28;19925;-57
2021/07/26 05:30:37;;;;;;;;;;;;;;;17.13;94.34;100903.78;5052013;28;19928;-57
2021/07/26 05:33:04;;;;;;;;;;;;;;;17.24;94.29;100900.16;5052255;28;19920;-57
2021/07/26 05:35:31;;;;;;;;;;;;;;;17.28;95.01;100901.53;5052070;28;19966;-57
2021/07/26 05:37:57;;;;;;;;;;;;;;;17.33;94.58;100904.63;5052178;28;19936;-57
2021/07/26 05:40:24;;;;;;;;;;;;;;;17.33;94.78;100898.44;5049264;28;19921;-49
2021/07/26 05:42:50;;;;;;;;;;;;;;;17.43;94.23;100904.59;5051113;28;19924;-45
2021/07/26 05:45:17;;;;;;;;;;;;;;;17.52;94.48;100910.84;5054598;28;19921;-47
2021/07/26 05:47:49;;;;;;;;;;;;;;;17.54;94.17;100900.94;5050824;28;19920;-44
2021/07/26 05:50:16;;;;;;;;;;;;;;;17.57;93.84;100901.50;5054821;28;19921;-57
2021/07/26 05:52:43;;;;;;;;;;;;;;;17.58;93.89;100897.81;5055886;28;19960;-57
2021/07/26 05:55:10;;;;;;;;;;;;;;;17.54;93.71;100903.59;5055854;28;19925;-57
2021/07/26 05:57:43;;;;;;;;;;;;;;;17.63;92.96;100899.22;5055620;28;19928;-57
2021/07/26 06:00:12;;;;;;;;;;;;;;;17.72;92.50;100904.53;5055644;28;19967;-46
2021/07/26 06:02:39;;;;;;;;;;;;;;;17.78;93.36;100902.25;5055860;28;19921;-47
2021/07/26 06:05:06;;;;;;;;;;;;;;;17.84;93.67;100891.03;5052862;28;19969;-46
2021/07/26 06:07:32;;;;;;;;;;;;;;;17.97;93.14;100901.34;5051696;28;20338;-57
2021/07/26 06:09:59;;;;;;;;;;;;;;;18.02;92.45;100905.25;5054995;28;19921;-57
2021/07/26 06:12:26;;;;;;;;;;;;;;;18.17;93.20;100899.44;5055428;28;19956;-57
2021/07/26 06:14:54;;;;;;;;;;;;;;;18.27;91.67;100902.91;5055450;28;20349;-58
2021/07/26 06:17:20;;;;;;;;;;;;;;;18.31;91.44;100896.31;5055315;28;19921;-57
2021/07/26 06:19:47;;;;;;;;;;;;;;;18.50;90.60;100894.47;5055327;28;19921;-47
2021/07/26 06:22:15;;;;;;;;;;;;;;;18.54;90.64;100903.84;5053001;28;19967;-48
2021/07/26 06:24:42;;;;;;;;;;;;;;;18.66;91.01;100907.13;5051664;28;20353;-57
2021/07/26 06:27:08;;;;;;;;;;;;;;;18.64;89.55;100911.75;5054707;28;19921;-57
2021/07/26 06:29:36;;;;;;;;;;;;;;;18.65;89.21;100908.97;5055007;28;19921;-58
2021/07/26 06:32:03;;;;;;;;;;;;;;;18.82;88.69;100906.47;5055173;28;19920;-46
2021/07/26 06:34:30;;;;;;;;;;;;;;;18.95;88.61;100908.75;5055176;28;20350;-49
2021/07/26 06:36:57;;;;;;;;;;;;;;;19.06;88.79;100906.69;5054892;28;20003;-57
2021/07/26 06:39:23;;;;;;;;;;;;;;;19.17;87.28;100907.44;5054808;28;19931;-57
2021/07/26 06:41:50;;;;;;;;;;;;;;;19.23;88.42;100905.00;5055184;28;19920;-48
2021/07/26 06:44:17;;;;;;;;;;;;;;;19.33;86.55;100906.72;5054012;28;20311;-47
2021/07/26 06:46:43;;;;;;;;;;;;;;;19.15;86.14;100914.75;5050755;28;19932;-48
2021/07/26 06:49:10;;;;;;;;;;;;;;;19.21;87.52;100914.13;5052959;28;19920;-50
2021/07/26 06:51:36;;;;;;;;;;;;;;;19.43;85.00;100912.81;5054815;28;19921;-47
2021/07/26 06:54:03;;;;;;;;;;;;;;;19.47;85.50;100921.31;5052996;28;19925;-46
2021/07/26 06:56:30;;;;;;;;;;;;;;;19.57;85.92;100917.56;5051916;28;20398;-56
2021/07/26 06:58:56;;;;;;;;;;;;;;;19.56;85.61;100921.22;5052584;28;20379;-56
2021/07/26 07:01:23;;;;;;;;;;;;;;;19.71;85.77;100925.97;5053190;28;19931;-56
2021/07/26 07:03:50;;;;;;;;;;;;;;;19.90;85.14;100916.94;5053445;28;19920;-57
2021/07/26 07:06:17;;;;;;;;;;;;;;;20.00;86.67;100916.81;5053410;28;19927;-57
2021/07/26 07:08:44;;;;;;;;;;;;;;;20.04;83.56;100911.00;5053262;28;19929;-57
2021/07/26 07:11:10;;;;;;;;;;;;;;;20.23;83.88;100909.91;5051527;28;19928;-58
2021/07/26 07:13:40;;;;;;;;;;;;;;;20.32;83.91;100912.59;5052101;28;20027;-57
2021/07/26 07:16:10;;;;;;;;;;;;;;;20.44;82.27;100911.31;5054378;28;19970;-57
2021/07/26 07:18:37;;;;;;;;;;;;;;;20.56;80.97;100923.34;5052914;28;20334;-57
2021/07/26 07:21:04;;;;;;;;;;;;;;;20.63;81.50;100923.53;5054049;28;20477;-57
2021/07/26 07:23:31;;;;;;;;;;;;;;;20.76;80.29;100923.94;5053038;28;19947;-57
2021/07/26 07:25:58;;;;;;;;;;;;;;;20.82;79.96;100929.59;5053139;28;20343;-57
2021/07/26 07:28:25;;;;;;;;;;;;;;;20.93;79.29;100931.97;5051752;28;19924;-57
2021/07/26 07:30:51;;;;;;;;;;;;;;;21.06;78.86;100926.09;5052802;28;19936;-57
2021/07/26 07:33:18;;;;;;;;;;;;;;;21.31;79.16;100928.75;5053798;28;19927;-57
2021/07/26 07:35:45;;;;;;;;;;;;;;;21.30;78.06;100927.09;5053812;28;19925;-49
2021/07/26 07:38:11;;;;;;;;;;;;;;;21.38;77.23;100927.94;5053038;28;19921;-47
2021/07/26 07:40:38;;;;;;;;;;;;;;;21.32;76.01;100933.94;5050402;28;19947;-45
2021/07/26 07:43:05;;;;;;;;;;;;;;;21.30;77.20;100930.63;5051828;28;19972;-49
2021/07/26 07:45:32;;;;;;;;;;;;;;;21.26;76.29;100932.78;5052663;28;20326;-50
2021/07/26 07:47:59;;;;;;;;;;;;;;;21.31;77.48;100939.47;5053978;28;19928;-51
2021/07/26 07:50:26;;;;;;;;;;;;;;;21.35;76.80;100941.66;5053410;28;20338;-50
2021/07/26 07:52:53;;;;;;;;;;;;;;;21.44;76.63;100943.28;5052200;28;19927;-48
2021/07/26 07:55:21;;;;;;;;;;;;;;;21.48;76.15;100937.63;5053777;28;20376;-52
2021/07/26 07:57:51;;;;;;;;;;;;;;;21.59;76.11;100939.97;5051485;28;19975;-50
2021/07/26 08:00:18;;;;;;;;;;;;;;;21.57;73.94;100939.31;5050962;28;19942;-45
2021/07/26 08:02:45;;;;;;;;;;;;;;;21.54;75.68;100935.13;5051697;28;19925;-47
2021/07/26 08:05:12;;;;;;;;;;;;;;;21.50;75.57;100938.28;5050573;28;19928;-46
2021/07/26 08:07:38;;;;;;;;;;;;;;;21.59;75.41;100942.66;5051460;28;19928;-50
2021/07/26 08:10:05;;;;;;;;;;;;;;;21.84;74.12;100938.09;5051370;28;19929;-48
2021/07/26 08:12:33;;;;;;;;;;;;;;;22.06;71.93;100944.53;5052539;28;19956;-50
2021/07/26 08:15:00;;;;;;;;;;;;;;;22.34;73.29;100938.72;5052701;28;19970;-51
2021/07/26 08:17:26;;;;;;;;;;;;;;;22.54;71.94;100941.81;5051834;28;19920;-52
2021/07/26 08:19:54;;;;;;;;;;;;;;;22.79;72.03;100947.03;5052627;28;19925;-50
2021/07/26 08:22:21;;;;;;;;;;;;;;;22.77;70.40;100944.53;5048904;28;19924;-49
2021/07/26 08:24:48;;;;;;;;;;;;;;;22.62;68.42;100951.66;5051874;28;19967;-50
2021/07/26 08:27:14;;;;;;;;;;;;;;;22.69;70.58;100951.78;5052949;28;20322;-52
2021/07/26 08:29:41;;;;;;;;;;;;;;;22.88;70.68;100950.50;5052867;28;19921;-51
2021/07/26 08:32:08;;;;;;;;;;;;;;;23.04;69.74;100955.72;5052196;28;19925;-50
2021/07/26 08:34:34;;;;;;;;;;;;;;;23.01;68.89;100953.38;5050081;28;19921;-52
2021/07/26 08:37:02;;;;;;;;;;;;;;;23.26;67.20;100963.94;5032882;28;19963;-51
2021/07/26 08:39:30;;;;;;;;;;;;;;;23.27;68.19;100960.25;5052815;28;19920;-51
2021/07/26 08:41:56;;;;;;;;;;;;;;;23.36;67.61;100958.34;5052556;28;19920;-48
2021/07/26 08:44:23;;;;;;;;;;;;;;;23.47;67.17;100955.22;5052683;28;19966;-49
2021/07/26 08:46:50;;;;;;;;;;;;;;;23.55;66.04;100963.19;5051612;28;19921;-50
2021/07/26 08:49:16;;;;;;;;;;;;;;;23.52;64.82;100960.03;5052561;28;19960;-57
2021/07/26 08:51:44;;;;;;;;;;;;;;;23.52;63.91;100960.88;5051416;28;19971;-57
2021/07/26 08:54:10;;;;;;;;;;;;;;;23.18;64.72;100967.56;5051353;28;19927;-58
2021/07/26 08:56:51;;;;;;;;;;;;;;;23.01;65.81;100963.28;5036923;28;20292;-58
2021/07/26 08:59:18;;;;;;;;;;;;;;;23.31;66.62;100966.94;5052334;28;19951;-58
2021/07/26 09:01:44;;;;;;;;;;;;;;;23.49;66.01;100958.53;5051196;28;19935;-59
2021/07/26 09:04:11;;;;;;;;;;;;;;;23.75;65.50;100963.50;5051409;28;19921;-58
2021/07/26 09:06:39;;;;;;;;;;;;;;;23.79;62.84;100969.31;5052408;28;19921;-58
2021/07/26 09:09:05;;;;;;;;;;;;;;;23.94;62.97;100970.22;5052357;28;19921;-58
2021/07/26 09:11:45;;;;;;;;;;;;;;;24.17;63.29;100963.06;5049373;28;19971;-57
2021/07/26 09:14:15;;;;;;;;;;;;;;;24.35;62.38;100962.66;5050022;28;19920;-58
2021/07/26 09:16:42;;;;;;;;;;;;;;;24.32;62.33;100960.34;5051320;28;20296;-57
2021/07/26 09:19:11;;;;;;;;;;;;;;;24.46;63.15;100968.38;5054697;28;20398;-58
2021/07/26 09:21:47;;;;;;;;;;;;;;;24.77;60.89;100961.94;5055774;28;19921;-58
2021/07/26 09:24:13;;;;;;;;;;;;;;;24.78;59.92;100957.38;5054371;28;19932;-58
2021/07/26 09:26:40;;;;;;;;;;;;;;;24.98;59.23;100957.59;5051347;28;19925;-57
2021/07/26 09:29:26;;;;;;;;;;;;;;;24.71;59.64;100951.13;5054107;28;19927;-57
2021/07/26 09:31:57;;;;;;;;;;;;;;;24.89;60.61;100956.03;5056006;28;19920;-58
2021/07/26 09:34:24;;;;;;;;;;;;;;;24.90;60.11;100960.41;5038861;28;19947;-58
2021/07/26 09:36:50;;;;;;;;;;;;;;;24.95;58.32;100964.19;5056101;28;19924;-57
2021/07/26 09:39:24;;;;;;;;;;;;;;;25.34;57.65;100953.16;5055896;28;19986;-58
2021/07/26 09:41:53;;;;;;;;;;;;;;;25.76;56.82;100954.06;5054850;28;19920;-58
2021/07/26 09:44:23;;;;;;;;;;;;;;;25.92;57.05;100947.50;5056187;28;20064;-58
2021/07/26 09:46:50;;;;;;;;;;;;;;;26.13;54.85;100943.94;5055956;28;19921;-58
2021/07/26 09:49:17;;;;;;;;;;;;;;;26.08;55.50;100949.94;5054654;28;20413;-57
2021/07/26 09:52:05;;;;;;;;;;;;;;;26.39;53.87;100956.69;5055072;28;19929;-57
2021/07/26 09:54:41;;;;;;;;;;;;;;;26.48;54.44;100947.38;5053199;28;19920;-57
2021/07/26 09:57:21;;;;;;;;;;;;;;;26.66;53.97;100948.66;5054877;28;19920;-57
2021/07/26 09:59:48;;;;;;;;;;;;;;;26.61;53.36;100945.75;5055752;28;19928;-57
2021/07/26 10:02:15;;;;;;;;;;;;;;;26.61;50.94;100945.75;5054714;28;20497;-57
2021/07/26 10:04:42;;;;;;;;;;;;;;;26.30;51.92;100947.09;5055940;28;20325;-58
2021/07/26 10:07:13;;;;;;;;;;;;;;;26.00;53.08;100950.06;5037940;28;20296;-57
2021/07/26 10:09:40;;;;;;;;;;;;;;;26.20;53.15;100952.06;5054402;28;20364;-57
2021/07/26 10:12:11;;;;;;;;;;;;;;;26.46;52.83;100964.78;5051694;28;19995;-46
2021/07/26 10:14:38;;;;;;;;;;;;;;;26.54;53.93;100961.91;5052759;28;19924;-46
2021/07/26 10:17:04;;;;;;;;;;;;;;;26.60;52.52;100954.88;5054581;28;20405;-48
2021/07/26 10:19:31;;;;;;;;;;;;;;;26.61;52.06;100951.16;5055607;28;19920;-47
2021/07/26 10:21:58;;;;;;;;;;;;;;;26.52;52.56;100961.28;5055487;28;20399;-45
2021/07/26 10:24:25;;;;;;;;;;;;;;;26.42;51.78;100950.91;5054338;28;19925;-45
2021/07/26 10:26:58;;;;;;;;;;;;;;;26.57;52.46;100957.97;5054183;28;20412;-46
2021/07/26 10:29:43;;;;;;;;;;;;;;;26.70;51.39;100957.19;5054018;28;19924;-60
2021/07/26 10:32:30;;;;;;;;;;;;;;;26.42;50.28;100959.00;5051537;28;20375;-55
2021/07/26 10:34:57;;;;;;;;;;;;;;;26.19;51.53;100955.78;5051830;28;19924;-59
2021/07/26 10:37:39;;;;;;;;;;;;;;;26.34;50.92;100951.06;5053711;28;19921;-59
2021/07/26 10:40:21;;;;;;;;;;;;;;;25.94;51.68;100948.97;5054976;28;19927;-59
2021/07/26 10:42:51;;;;;;;;;;;;;;;25.64;51.90;100951.09;5054918;28;19920;-58
2021/07/26 10:45:33;;;;;;;;;;;;;;;25.55;52.77;100946.88;5054736;28;19921;-58
2021/07/26 10:48:19;;;;;;;;;;;;;;;25.61;53.43;100949.63;5055182;28;20024;-57
2021/07/26 10:50:46;;;;;;;;;;;;;;;25.42;54.39;100947.63;5054865;28;19932;-58
2021/07/26 10:53:31;;;;;;;;;;;;;;;25.24;55.66;100954.28;5036698;28;19956;-58
2021/07/26 10:56:08;;;;;;;;;;;;;;;25.43;54.75;100960.06;5054229;28;19946;-59
2021/07/26 10:58:38;;;;;;;;;;;;;;;25.22;54.84;100964.41;5052844;28;19920;-58
2021/07/26 11:01:20;;;;;;;;;;;;;;;25.18;56.00;100952.38;5051701;28;19928;-58
2021/07/26 11:03:48;;;;;;;;;;;;;;;25.24;56.40;100961.53;5050096;28;20020;-58
2021/07/26 11:06:33;;;;;;;;;;;;;;;25.40;53.86;100950.53;5053887;28;19960;-59
2021/07/26 11:09:18;;;;;;;;;;;;;;;25.21;55.67;100956.53;5054438;28;20015;-59
2021/07/26 11:11:46;;;;;;;;;;;;;;;25.47;56.38;100953.28;5054437;28;19924;-59
2021/07/26 11:14:13;;;;;;;;;;;;;;;25.33;54.44;100960.38;5054157;28;20334;-59
2021/07/26 11:17:11;;;;;;;;;;;;;;;25.16;55.61;100964.38;5048936;28;19925;-59
2021/07/26 11:20:05;;;;;;;;;;;;;;;25.02;54.98;100955.31;5051566;28;19974;-59
2021/07/26 11:22:32;;;;;;;;;;;;;;;24.75;56.59;100958.59;5051832;28;20326;-59
2021/07/26 11:25:03;;;;;;;;;;;;;;;25.01;55.56;100959.88;5051310;28;19924;-59
2021/07/26 11:27:31;;;;;;;;;;;;;;;25.17;54.49;100958.78;5054378;28;20418;-58
2021/07/26 11:29:57;;;;;;;;;;;;;;;24.86;54.79;100953.75;5053892;28;19927;-58
2021/07/26 11:32:24;;;;;;;;;;;;;;;24.96;54.55;100956.94;5051122;28;19928;-59
2021/07/26 11:34:55;;;;;;;;;;;;;;;24.88;55.48;100951.69;5049020;28;19931;-59
2021/07/26 11:37:35;;;;;;;;;;;;;;;24.66;55.71;100954.34;5052918;28;20014;-59
2021/07/26 11:40:04;;;;;;;;;;;;;;;25.00;53.97;100949.31;5050577;28;19920;-59
2021/07/26 11:42:31;;;;;;;;;;;;;;;24.78;55.30;100947.44;5050503;28;20371;-59
2021/07/26 11:45:01;;;;;;;;;;;;;;;24.99;54.05;100948.47;5053698;28;19966;-59
2021/07/26 11:47:35;;;;;;;;;;;;;;;25.15;53.94;100947.38;5048134;28;19931;-59
2021/07/26 11:50:03;;;;;;;;;;;;;;;25.20;54.48;100954.88;5050930;28;19924;-58
2021/07/26 11:52:30;;;;;;;;;;;;;;;25.54;53.36;100946.06;5051272;28;19925;-58
2021/07/26 11:54:56;;;;;;;;;;;;;;;26.11;53.25;100930.66;5049282;28;19928;-58
2021/07/26 11:57:23;;;;;;;;;;;;;;;26.44;50.64;100938.03;5052192;28;19963;-58
2021/07/26 11:59:50;;;;;;;;;;;;;;;26.89;51.00;100936.72;5050183;28;19921;-59
2021/07/26 12:02:33;;;;;;;;;;;;;;;26.67;50.73;100944.94;5047769;28;19920;-59
2021/07/26 12:05:05;;;;;;;;;;;;;;;26.49;47.83;100943.66;5051592;28;19920;-59
2021/07/26 12:07:58;;;;;;;;;;;;;;;26.53;50.51;100943.25;5050908;28;19928;-59
2021/07/26 12:10:34;;;;;;;;;;;;;;;26.42;51.23;100939.28;5050322;28;19927;-59
2021/07/26 12:13:07;;;;;;;;;;;;;;;26.82;49.37;100936.72;5053221;28;19927;-59
2021/07/26 12:15:34;;;;;;;;;;;;;;;26.95;49.21;100930.47;5053202;28;19974;-59
2021/07/26 12:18:05;;;;;;;;;;;;;;;26.74;49.53;100936.91;5051446;28;20092;-59
2021/07/26 12:20:33;;;;;;;;;;;;;;;26.74;49.49;100936.91;5050514;28;19921;-59
2021/07/26 12:23:18;;;;;;;;;;;;;;;26.66;49.74;100933.31;5052439;28;20303;-59
2021/07/26 12:25:50;;;;;;;;;;;;;;;26.22;50.32;100933.81;5050415;28;19921;-59
2021/07/26 12:28:17;;;;;;;;;;;;;;;26.48;49.96;100942.00;5049670;28;19974;-59
2021/07/26 12:30:45;;;;;;;;;;;;;;;26.61;49.79;100940.34;5051767;28;19925;-59
2021/07/26 12:33:12;;;;;;;;;;;;;;;26.57;51.11;100933.72;5052699;28;19925;-59
2021/07/26 12:35:39;;;;;;;;;;;;;;;27.04;49.91;100939.19;5050955;28;19920;-59
2021/07/26 12:38:06;;;;;;;;;;;;;;;27.71;47.40;100945.41;5048692;28;20145;-59
2021/07/26 12:40:33;;;;;;;;;;;;;;;27.56;47.13;100931.31;5052820;28;19921;-60
2021/07/26 12:43:07;;;;;;;;;;;;;;;27.81;47.64;100935.00;5052676;28;19970;-59